createdAt,value
2022-08-26T00:01:54.173Z,21.18
2022-08-26T00:04:24.954Z,21.24
2022-08-26T00:06:53.724Z,21.20
2022-08-26T00:09:21.451Z,21.18
2022-08-26T00:11:49.708Z,21.19
2022-08-26T00:14:18.819Z,21.16
2022-08-26T00:16:47.132Z,21.20
2022-08-26T00:19:16.152Z,21.18
2022-08-26T00:21:45.392Z,21.22
2022-08-26T00:24:13.194Z,21.22
2022-08-26T00:26:41.609Z,21.27
2022-08-26T00:29:10.695Z,21.24
2022-08-26T00:31:38.428Z,21.18
2022-08-26T00:34:09.567Z,21.24
2022-08-26T00:36:37.824Z,21.28
2022-08-26T00:39:08.326Z,21.28
2022-08-26T00:41:36.227Z,21.25
2022-08-26T00:44:05.480Z,21.22
2022-08-26T00:46:37.752Z,21.17
2022-08-26T00:49:12.096Z,21.19
2022-08-26T00:51:45.001Z,21.19
2022-08-26T00:54:15.671Z,21.11
2022-08-26T00:56:47.871Z,21.16
2022-08-26T00:59:17.923Z,21.02
2022-08-26T01:01:46.304Z,20.92
2022-08-26T01:04:19.152Z,20.79
2022-08-26T01:06:48.960Z,20.75
2022-08-26T01:09:20.447Z,20.72
2022-08-26T01:11:49.825Z,20.66
2022-08-26T01:14:20.431Z,20.58
2022-08-26T01:16:49.994Z,20.49
2022-08-26T01:19:21.742Z,20.51
2022-08-26T01:21:56.728Z,20.59
2022-08-26T01:24:28.231Z,20.70
2022-08-26T01:26:58.784Z,20.77
2022-08-26T01:29:27.161Z,20.75
2022-08-26T01:31:57.406Z,20.71
2022-08-26T01:34:28.697Z,20.73
2022-08-26T01:37:02.300Z,20.66
2022-08-26T01:39:33.423Z,20.58
2022-08-26T01:42:03.295Z,20.48
2022-08-26T01:44:36.155Z,20.50
2022-08-26T01:47:06.531Z,20.48
2022-08-26T01:49:36.579Z,20.46
2022-08-26T01:52:06.411Z,20.41
2022-08-26T01:54:36.432Z,20.41
2022-08-26T01:57:05.037Z,20.38
2022-08-26T01:59:33.005Z,20.41
2022-08-26T02:02:00.648Z,20.41
2022-08-26T02:04:31.924Z,20.46
2022-08-26T02:07:04.719Z,20.50
2022-08-26T02:09:32.496Z,20.52
2022-08-26T02:12:09.019Z,20.53
2022-08-26T02:14:43.947Z,20.45
2022-08-26T02:17:12.373Z,20.32
2022-08-26T02:19:42.929Z,20.26
2022-08-26T02:22:16.069Z,20.30
2022-08-26T02:24:50.455Z,20.32
2022-08-26T02:27:23.652Z,20.28
2022-08-26T02:29:55.559Z,20.25
2022-08-26T02:32:23.419Z,20.19
2022-08-26T02:34:51.167Z,20.14
2022-08-26T02:37:19.325Z,20.07
2022-08-26T02:39:50.671Z,19.97
2022-08-26T02:42:21.389Z,19.89
2022-08-26T02:44:49.280Z,19.86
2022-08-26T02:47:17.530Z,19.84
2022-08-26T02:49:47.212Z,19.83
2022-08-26T02:52:15.782Z,19.90
2022-08-26T02:54:43.516Z,19.88
2022-08-26T02:57:13.103Z,19.85
2022-08-26T02:59:42.353Z,19.87
2022-08-26T03:02:11.228Z,19.82
2022-08-26T03:04:39.758Z,19.81
2022-08-26T03:07:08.185Z,19.85
2022-08-26T03:09:36.415Z,19.84
2022-08-26T03:12:05.175Z,19.80
2022-08-26T03:14:32.847Z,19.74
2022-08-26T03:17:01.857Z,19.72
2022-08-26T03:19:30.179Z,19.69
2022-08-26T03:21:59.724Z,19.82
2022-08-26T03:24:27.724Z,19.63
2022-08-26T03:26:55.385Z,19.44
2022-08-26T03:29:41.807Z,19.39
2022-08-26T03:32:10.972Z,19.26
2022-08-26T03:34:38.821Z,19.20
2022-08-26T03:37:06.534Z,19.22
2022-08-26T03:39:34.166Z,19.26
2022-08-26T03:42:01.855Z,19.25
2022-08-26T03:44:29.808Z,19.24
2022-08-26T03:46:57.857Z,19.22
2022-08-26T03:49:29.019Z,19.28
2022-08-26T03:51:56.743Z,19.19
2022-08-26T03:54:24.477Z,19.15
2022-08-26T03:56:52.068Z,19.13
2022-08-26T03:59:20.983Z,19.08
2022-08-26T04:01:48.739Z,18.97
2022-08-26T04:04:16.824Z,19.00
2022-08-26T04:06:46.149Z,19.16
2022-08-26T04:09:15.969Z,19.08
2022-08-26T04:11:45.152Z,18.95
2022-08-26T04:14:26.461Z,18.84
2022-08-26T04:16:56.080Z,18.85
2022-08-26T04:19:25.227Z,18.77
2022-08-26T04:21:54.458Z,18.74
2022-08-26T04:24:24.376Z,18.97
2022-08-26T04:26:52.367Z,19.14
2022-08-26T04:29:23.934Z,19.12
2022-08-26T04:31:55.536Z,19.06
2022-08-26T04:34:24.136Z,18.86
2022-08-26T04:36:52.068Z,18.71
2022-08-26T04:39:21.443Z,18.65
2022-08-26T04:41:53.384Z,18.73
2022-08-26T04:44:22.272Z,18.76
2022-08-26T04:46:49.933Z,18.76
2022-08-26T04:49:17.581Z,18.76
2022-08-26T04:51:46.061Z,18.67
2022-08-26T04:54:14.992Z,18.72
2022-08-26T04:56:47.243Z,18.73
2022-08-26T04:59:18.216Z,18.64
2022-08-26T05:01:47.854Z,18.68
2022-08-26T05:04:16.219Z,18.67
2022-08-26T05:06:46.568Z,18.76
2022-08-26T05:09:15.432Z,18.86
2022-08-26T05:11:43.551Z,18.82
2022-08-26T05:14:13.198Z,18.71
2022-08-26T05:16:41.018Z,18.64
2022-08-26T05:19:09.362Z,18.60
2022-08-26T05:21:38.567Z,18.59
2022-08-26T05:24:07.377Z,18.57
2022-08-26T05:26:35.073Z,18.59
2022-08-26T05:29:02.860Z,18.70
2022-08-26T05:31:33.966Z,18.71
2022-08-26T05:34:03.689Z,18.85
2022-08-26T05:36:33.342Z,18.93
2022-08-26T05:39:02.281Z,19.04
2022-08-26T05:41:34.459Z,19.06
2022-08-26T05:44:05.987Z,19.06
2022-08-26T05:46:35.826Z,19.00
2022-08-26T05:49:05.719Z,19.00
2022-08-26T05:51:33.786Z,18.96
2022-08-26T05:54:03.610Z,18.92
2022-08-26T05:56:31.410Z,18.98
2022-08-26T05:59:01.365Z,19.17
2022-08-26T06:01:30.255Z,19.36
2022-08-26T06:04:01.998Z,19.64
2022-08-26T06:06:32.287Z,19.96
2022-08-26T06:09:01.568Z,20.27
2022-08-26T06:11:32.454Z,20.45
2022-08-26T06:14:04.047Z,20.62
2022-08-26T06:16:33.387Z,20.79
2022-08-26T06:19:10.563Z,20.93
2022-08-26T06:21:40.317Z,21.04
2022-08-26T06:24:27.923Z,21.08
2022-08-26T06:26:57.148Z,21.10
2022-08-26T06:29:26.916Z,21.19
2022-08-26T06:31:57.028Z,21.30
2022-08-26T06:34:30.372Z,21.44
2022-08-26T06:37:02.107Z,21.56
2022-08-26T06:39:31.396Z,21.72
2022-08-26T06:41:59.312Z,21.89
2022-08-26T06:44:27.496Z,22.05
2022-08-26T06:46:55.923Z,22.22
2022-08-26T06:49:25.778Z,22.33
2022-08-26T06:51:58.824Z,22.45
2022-08-26T06:54:26.740Z,22.54
2022-08-26T06:56:56.644Z,22.66
2022-08-26T06:59:24.350Z,22.82
2022-08-26T07:01:52.196Z,22.97
2022-08-26T07:04:22.459Z,23.10
2022-08-26T07:06:53.698Z,23.26
2022-08-26T07:09:25.304Z,23.40
2022-08-26T07:11:55.338Z,23.48
2022-08-26T07:14:23.781Z,23.57
2022-08-26T07:16:52.032Z,23.69
2022-08-26T07:19:30.014Z,23.90
2022-08-26T07:22:01.650Z,24.04
2022-08-26T07:24:32.271Z,24.18
2022-08-26T07:27:01.273Z,24.28
2022-08-26T07:29:29.176Z,24.35
2022-08-26T07:31:56.908Z,24.49
2022-08-26T07:34:25.298Z,24.62
2022-08-26T07:36:55.325Z,24.71
2022-08-26T07:39:24.080Z,24.78
2022-08-26T07:41:53.930Z,24.80
2022-08-26T07:44:21.960Z,24.86
2022-08-26T07:46:52.424Z,24.96
2022-08-26T07:49:22.483Z,24.98
2022-08-26T07:51:50.744Z,25.05
2022-08-26T07:54:18.718Z,25.04
2022-08-26T07:56:47.444Z,25.09
2022-08-26T07:59:18.623Z,25.25
2022-08-26T08:01:47.110Z,25.35
2022-08-26T08:04:15.816Z,25.56
2022-08-26T08:06:44.027Z,25.70
2022-08-26T08:09:13.223Z,25.79
2022-08-26T08:11:41.344Z,25.56
2022-08-26T08:14:11.845Z,25.67
2022-08-26T08:16:45.993Z,25.54
2022-08-26T08:19:15.267Z,25.32
2022-08-26T08:21:43.387Z,25.45
2022-08-26T08:24:12.176Z,25.35
2022-08-26T08:26:40.128Z,25.31
2022-08-26T08:29:09.147Z,25.52
2022-08-26T08:31:56.561Z,25.70
2022-08-26T08:34:27.896Z,25.49
2022-08-26T08:36:56.033Z,25.43
2022-08-26T08:39:24.992Z,25.65
2022-08-26T08:42:27.579Z,25.75
2022-08-26T08:45:00.252Z,25.60
2022-08-26T08:47:33.773Z,25.73
2022-08-26T08:50:07.344Z,25.84
2022-08-26T08:52:37.061Z,25.97
2022-08-26T08:55:11.014Z,26.18
2022-08-26T08:58:04.650Z,26.48
2022-08-26T09:00:44.123Z,26.56
2022-08-26T09:03:25.496Z,26.72
2022-08-26T09:05:55.404Z,27.03
2022-08-26T09:08:27.396Z,27.28
2022-08-26T09:10:59.085Z,27.47
2022-08-26T09:13:27.851Z,27.71
2022-08-26T09:16:06.698Z,27.92
2022-08-26T09:18:52.795Z,28.04
2022-08-26T09:21:25.144Z,28.12
2022-08-26T09:23:55.774Z,28.24
2022-08-26T09:26:29.233Z,28.34
2022-08-26T09:29:00.445Z,28.44
2022-08-26T09:31:31.049Z,28.56
2022-08-26T09:34:17.395Z,28.68
2022-08-26T09:36:48.836Z,28.83
2022-08-26T09:39:30.091Z,28.88
2022-08-26T09:42:08.197Z,29.00
2022-08-26T09:44:54.639Z,29.14
2022-08-26T09:47:28.083Z,29.25
2022-08-26T09:50:04.089Z,29.30
2022-08-26T09:52:33.439Z,29.36
2022-08-26T09:55:04.816Z,29.49
2022-08-26T09:57:35.326Z,29.60
2022-08-26T10:00:23.824Z,29.74
2022-08-26T10:02:56.020Z,29.77
2022-08-26T10:05:32.905Z,29.85
2022-08-26T10:08:17.145Z,30.00
2022-08-26T10:10:46.023Z,29.98
2022-08-26T10:13:20.767Z,30.05
2022-08-26T10:15:59.571Z,30.22
2022-08-26T10:18:34.709Z,30.36
2022-08-26T10:21:08.318Z,30.52
2022-08-26T10:26:17.412Z,30.79
2022-08-26T10:28:50.749Z,30.89
2022-08-26T10:31:28.281Z,30.98
2022-08-26T10:34:00.466Z,30.68
2022-08-26T10:39:46.218Z,31.15
2022-08-26T10:42:20.245Z,31.41
2022-08-26T10:44:50.996Z,31.66
2022-08-26T10:47:23.030Z,31.79
2022-08-26T10:49:58.692Z,31.43
2022-08-26T10:52:41.577Z,31.72
2022-08-26T10:55:20.715Z,31.92
2022-08-26T10:57:56.383Z,32.27
2022-08-26T11:00:46.638Z,32.54
2022-08-26T11:03:29.180Z,32.91
2022-08-26T11:06:21.949Z,33.08
2022-08-26T11:08:51.781Z,33.25
2022-08-26T11:11:51.398Z,33.55
2022-08-26T11:14:45.958Z,33.76
2022-08-26T11:17:56.557Z,33.80
2022-08-26T11:20:36.750Z,33.91
2022-08-26T11:23:50.545Z,34.29
2022-08-26T11:26:27.461Z,34.52
2022-08-26T11:29:13.142Z,34.87
2022-08-26T11:31:57.648Z,35.06
2022-08-26T11:34:43.855Z,35.30
2022-08-26T11:37:17.939Z,35.47
2022-08-26T11:39:54.978Z,35.57
2022-08-26T11:42:32.402Z,35.39
2022-08-26T11:45:05.442Z,35.01
2022-08-26T11:47:33.433Z,35.60
2022-08-26T11:50:13.470Z,35.76
2022-08-26T11:52:41.088Z,35.43
2022-08-26T11:55:12.014Z,35.89
2022-08-26T11:57:45.642Z,35.40
2022-08-26T12:00:22.755Z,35.55
2022-08-26T12:02:52.467Z,34.61
2022-08-26T12:05:25.358Z,34.76
2022-08-26T12:07:55.235Z,35.48
2022-08-26T12:10:29.777Z,35.20
2022-08-26T12:12:59.279Z,35.64
2022-08-26T12:15:29.895Z,36.69
2022-08-26T12:17:59.207Z,37.42
2022-08-26T12:20:45.854Z,37.84
2022-08-26T12:23:29.221Z,37.54
2022-08-26T12:26:05.885Z,38.42
2022-08-26T12:28:34.401Z,38.61
2022-08-26T12:31:07.123Z,38.59
2022-08-26T12:33:36.884Z,39.33
2022-08-26T12:36:05.940Z,39.50
2022-08-26T12:38:37.421Z,38.34
2022-08-26T12:41:05.448Z,38.82
2022-08-26T12:43:44.952Z,38.56
2022-08-26T12:46:18.595Z,38.32
2022-08-26T12:48:49.940Z,38.82
2022-08-26T12:51:24.588Z,38.63
2022-08-26T12:53:52.976Z,39.61
2022-08-26T12:56:27.471Z,40.13
2022-08-26T12:59:03.588Z,40.39
2022-08-26T13:01:39.935Z,40.62
2022-08-26T13:04:07.819Z,40.79
2022-08-26T13:06:35.790Z,40.77
2022-08-26T13:09:25.049Z,40.51
2022-08-26T13:12:00.226Z,40.71
2022-08-26T13:14:30.349Z,40.53
2022-08-26T13:16:59.305Z,41.38
2022-08-26T13:19:27.174Z,42.23
2022-08-26T13:21:57.414Z,42.76
2022-08-26T13:24:31.904Z,43.01
2022-08-26T13:27:00.778Z,43.44
2022-08-26T13:29:28.647Z,43.56
2022-08-26T13:31:56.739Z,43.56
2022-08-26T13:34:27.783Z,43.68
2022-08-26T13:36:56.666Z,43.15
2022-08-26T13:39:25.447Z,42.02
2022-08-26T13:41:53.326Z,41.28
2022-08-26T13:44:21.530Z,40.11
2022-08-26T13:46:49.217Z,39.32
2022-08-26T13:49:16.939Z,38.98
2022-08-26T13:51:46.009Z,38.86
2022-08-26T13:54:13.682Z,39.26
2022-08-26T13:56:41.502Z,39.82
2022-08-26T13:59:09.182Z,40.72
2022-08-26T14:01:39.919Z,42.01
2022-08-26T14:04:08.282Z,42.72
2022-08-26T14:06:36.181Z,41.90
2022-08-26T14:09:05.609Z,40.38
2022-08-26T14:11:50.537Z,40.39
2022-08-26T14:14:20.829Z,39.92
2022-08-26T14:16:59.830Z,38.53
2022-08-26T14:19:29.420Z,38.06
2022-08-26T14:21:57.063Z,35.65
2022-08-26T14:24:26.054Z,35.17
2022-08-26T14:26:53.707Z,34.70
2022-08-26T14:29:21.348Z,33.42
2022-08-26T14:31:49.280Z,33.91
2022-08-26T14:34:17.021Z,33.93
2022-08-26T14:36:44.619Z,33.88
2022-08-26T14:39:14.615Z,34.26
2022-08-26T14:41:54.517Z,34.61
2022-08-26T14:44:25.393Z,34.75
2022-08-26T14:46:54.483Z,34.77
2022-08-26T14:49:24.368Z,35.61
2022-08-26T14:51:51.980Z,36.53
2022-08-26T14:54:20.114Z,36.84
2022-08-26T14:56:51.550Z,36.51
2022-08-26T14:59:21.743Z,35.80
2022-08-26T15:01:49.609Z,35.54
2022-08-26T15:04:17.944Z,35.68
2022-08-26T15:06:46.121Z,35.55
2022-08-26T15:09:14.033Z,35.15
2022-08-26T15:11:41.721Z,33.70
2022-08-26T15:14:19.133Z,33.43
2022-08-26T15:16:48.388Z,33.08
2022-08-26T15:19:16.454Z,33.21
2022-08-26T15:21:45.484Z,33.34
2022-08-26T15:24:13.744Z,32.96
2022-08-26T15:26:41.920Z,32.80
2022-08-26T15:29:11.357Z,32.56
2022-08-26T15:31:39.168Z,32.87
2022-08-26T15:34:11.141Z,33.59
2022-08-26T15:36:44.605Z,33.83
2022-08-26T15:39:12.631Z,33.87
2022-08-26T15:41:41.060Z,32.95
2022-08-26T15:44:09.261Z,32.76
2022-08-26T15:46:39.284Z,32.56
2022-08-26T15:49:07.852Z,32.15
2022-08-26T15:51:45.974Z,31.97
2022-08-26T15:54:14.722Z,31.39
2022-08-26T15:56:43.604Z,30.92
2022-08-26T15:59:12.083Z,30.85
2022-08-26T16:01:41.523Z,30.66
2022-08-26T16:04:09.724Z,30.90
2022-08-26T16:06:39.792Z,30.77
2022-08-26T16:09:08.725Z,30.87
2022-08-26T16:11:37.317Z,30.91
2022-08-26T16:14:06.101Z,31.01
2022-08-26T16:16:33.830Z,30.85
2022-08-26T16:19:07.293Z,30.57
2022-08-26T16:21:36.010Z,30.42
2022-08-26T16:24:04.741Z,30.40
2022-08-26T16:26:34.440Z,30.36
2022-08-26T16:29:04.008Z,30.33
2022-08-26T16:31:31.870Z,30.32
2022-08-26T16:33:59.548Z,30.27
2022-08-26T16:36:28.516Z,29.64
2022-08-26T16:38:56.400Z,29.16
2022-08-26T16:41:25.415Z,28.73
2022-08-26T16:43:53.647Z,28.41
2022-08-26T16:46:23.598Z,28.19
2022-08-26T16:48:51.242Z,28.15
2022-08-26T16:51:23.297Z,28.15
2022-08-26T16:53:53.391Z,27.83
2022-08-26T16:56:23.589Z,27.77
2022-08-26T16:59:01.180Z,27.59
2022-08-26T17:01:29.560Z,27.31
2022-08-26T17:03:57.206Z,27.09
2022-08-26T17:06:24.984Z,27.02
2022-08-26T17:08:53.960Z,26.54
2022-08-26T17:11:21.593Z,26.23
2022-08-26T17:13:49.227Z,25.94
2022-08-26T17:16:17.008Z,25.31
2022-08-26T17:18:44.676Z,25.02
2022-08-26T17:21:14.356Z,24.83
2022-08-26T17:23:43.684Z,24.77
2022-08-26T17:26:13.074Z,24.69
2022-08-26T17:28:41.377Z,24.62
2022-08-26T17:31:10.558Z,24.59
2022-08-26T17:33:38.671Z,24.57
2022-08-26T17:36:07.633Z,24.44
2022-08-26T17:38:35.507Z,24.31
2022-08-26T17:41:03.343Z,24.09
2022-08-26T17:43:32.317Z,24.01
2022-08-26T17:46:06.889Z,23.94
2022-08-26T17:48:35.397Z,23.88
2022-08-26T17:51:08.261Z,23.59
2022-08-26T17:53:36.020Z,23.41
2022-08-26T17:56:06.637Z,23.45
2022-08-26T17:58:37.792Z,23.49
2022-08-26T18:01:06.480Z,23.44
2022-08-26T18:03:35.198Z,23.48
2022-08-26T18:06:03.613Z,23.49
2022-08-26T18:08:31.279Z,23.50
2022-08-26T18:10:59.026Z,23.50
2022-08-26T18:13:26.653Z,23.49
2022-08-26T18:15:56.177Z,23.49
2022-08-26T18:18:23.892Z,23.47
2022-08-26T18:20:51.830Z,23.44
2022-08-26T18:23:29.607Z,23.36
2022-08-26T18:25:59.308Z,23.29
2022-08-26T18:28:26.923Z,23.24
2022-08-26T18:30:57.619Z,23.10
2022-08-26T18:33:25.443Z,23.07
2022-08-26T18:35:53.362Z,23.03
2022-08-26T18:38:20.983Z,22.88
2022-08-26T18:40:50.167Z,22.84
2022-08-26T18:43:17.779Z,22.86
2022-08-26T18:45:45.515Z,22.82
2022-08-26T18:48:14.847Z,22.85
2022-08-26T18:50:46.985Z,22.80
2022-08-26T18:53:15.573Z,22.78
2022-08-26T18:55:43.224Z,22.75
2022-08-26T18:58:11.581Z,22.76
2022-08-26T19:00:39.487Z,22.79
2022-08-26T19:03:07.113Z,22.76
2022-08-26T19:05:47.988Z,22.78
2022-08-26T19:08:15.612Z,22.74
2022-08-26T19:10:43.327Z,22.69
2022-08-26T19:13:11.273Z,22.63
2022-08-26T19:15:40.209Z,22.71
2022-08-26T19:18:08.510Z,22.66
2022-08-26T19:20:41.542Z,22.63
2022-08-26T19:23:30.933Z,22.62
2022-08-26T19:26:00.298Z,22.59
2022-08-26T19:28:28.058Z,22.58
2022-08-26T19:30:55.774Z,22.61
2022-08-26T19:33:23.397Z,22.66
2022-08-26T19:35:51.632Z,22.63
2022-08-26T19:38:20.893Z,22.65
2022-08-26T19:40:48.978Z,22.67
2022-08-26T19:43:16.633Z,22.69
2022-08-26T19:45:45.901Z,22.62
2022-08-26T19:48:13.639Z,22.61
2022-08-26T19:50:42.135Z,22.59
2022-08-26T19:53:10.120Z,22.48
2022-08-26T19:55:39.266Z,22.46
2022-08-26T19:58:07.834Z,22.42
2022-08-26T20:00:37.257Z,22.38
2022-08-26T20:03:05.089Z,22.34
2022-08-26T20:05:32.736Z,22.24
2022-08-26T20:08:00.298Z,22.20
2022-08-26T20:10:28.127Z,22.17
2022-08-26T20:12:57.106Z,22.16
2022-08-26T20:15:24.918Z,22.26
2022-08-26T20:17:56.041Z,22.30
2022-08-26T20:20:41.540Z,22.27
2022-08-26T20:23:09.699Z,22.28
2022-08-26T20:25:38.948Z,22.28
2022-08-26T20:28:09.619Z,22.29
2022-08-26T20:30:37.893Z,22.31
2022-08-26T20:33:05.637Z,22.31
2022-08-26T20:35:33.565Z,22.31
2022-08-26T20:38:01.173Z,22.24
2022-08-26T20:40:28.915Z,22.21
2022-08-26T20:42:56.582Z,22.18
2022-08-26T20:45:25.921Z,22.09
2022-08-26T20:47:53.524Z,21.99
2022-08-26T20:50:21.337Z,22.02
2022-08-26T20:52:48.993Z,22.14
2022-08-26T20:55:17.094Z,22.17
2022-08-26T20:57:44.696Z,22.16
2022-08-26T21:00:16.056Z,22.12
2022-08-26T21:02:46.950Z,22.14
2022-08-26T21:05:14.640Z,22.08
2022-08-26T21:07:42.244Z,22.08
2022-08-26T21:10:11.227Z,22.09
2022-08-26T21:12:38.888Z,22.13
2022-08-26T21:15:07.567Z,22.13
2022-08-26T21:17:35.574Z,22.13
2022-08-26T21:20:05.227Z,22.14
2022-08-26T21:22:32.902Z,22.11
2022-08-26T21:25:00.641Z,22.13
2022-08-26T21:27:28.285Z,22.16
2022-08-26T21:29:56.324Z,22.14
2022-08-26T21:32:23.975Z,22.17
2022-08-26T21:34:55.637Z,22.21
2022-08-26T21:37:25.656Z,22.21
2022-08-26T21:39:54.056Z,22.20
2022-08-26T21:42:22.023Z,22.19
2022-08-26T21:44:52.858Z,22.10
2022-08-26T21:47:20.760Z,22.02
2022-08-26T21:49:48.556Z,22.01
2022-08-26T21:52:16.249Z,22.03
2022-08-26T21:54:49.258Z,22.03
2022-08-26T21:57:18.017Z,22.02
2022-08-26T21:59:45.624Z,22.00
2022-08-26T22:02:13.418Z,22.04
2022-08-26T22:04:44.541Z,22.01
2022-08-26T22:07:14.359Z,22.04
2022-08-26T22:09:42.425Z,22.00
2022-08-26T22:12:17.974Z,22.05
2022-08-26T22:14:45.531Z,22.08
2022-08-26T22:17:13.482Z,22.08
2022-08-26T22:19:46.106Z,22.10
2022-08-26T22:22:15.304Z,22.12
2022-08-26T22:24:43.804Z,22.05
2022-08-26T22:27:13.541Z,21.95
2022-08-26T22:29:41.818Z,21.89
2022-08-26T22:32:09.976Z,21.77
2022-08-26T22:34:37.638Z,21.67
2022-08-26T22:37:05.536Z,21.58
2022-08-26T22:39:33.586Z,21.51
2022-08-26T22:42:03.541Z,21.55
2022-08-26T22:44:32.823Z,21.48
2022-08-26T22:47:01.036Z,21.48
2022-08-26T22:49:28.739Z,21.43
2022-08-26T22:51:56.517Z,21.39
2022-08-26T22:54:24.168Z,21.28
2022-08-26T22:56:51.779Z,21.23
2022-08-26T22:59:19.417Z,21.24
2022-08-26T23:01:48.622Z,21.25
2022-08-26T23:04:16.365Z,21.23
2022-08-26T23:06:47.767Z,21.20
2022-08-26T23:09:17.765Z,21.11
2022-08-26T23:11:46.218Z,21.02
2022-08-26T23:14:14.188Z,20.88
2022-08-26T23:16:42.564Z,20.83
2022-08-26T23:19:13.707Z,20.89
2022-08-26T23:21:41.453Z,20.95
2022-08-26T23:24:09.621Z,21.05
2022-08-26T23:26:38.414Z,21.14
2022-08-26T23:29:07.934Z,21.17
2022-08-26T23:31:37.090Z,21.17
2022-08-26T23:34:22.159Z,21.22
2022-08-26T23:36:51.145Z,21.24
2022-08-26T23:39:18.964Z,21.21
2022-08-26T23:41:46.931Z,21.22
2022-08-26T23:44:14.641Z,21.24
2022-08-26T23:46:42.257Z,21.26
2022-08-26T23:49:09.879Z,21.26
2022-08-26T23:51:56.299Z,21.29
2022-08-26T23:54:25.401Z,21.31
2022-08-26T23:56:53.120Z,21.32
2022-08-26T23:59:21.011Z,21.32
